sensor_id;sensor_type;location;lat;lon;timestamp;pressure;altitude;pressure_sealevel;temperature;humidity
7660;BME280;3872;47.902;8.162;2023-06-10T00:00:40;91625.31;;;17.80;85.48
7660;BME280;3872;47.902;8.162;2023-06-10T00:03:07;91618.78;;;17.34;89.72
7660;BME280;3872;47.902;8.162;2023-06-10T00:05:34;91617.50;;;17.44;88.86
7660;BME280;3872;47.902;8.162;2023-06-10T00:08:01;91614.09;;;17.15;91.72
7660;BME280;3872;47.902;8.162;2023-06-10T00:10:33;91620.50;;;17.42;87.81
7660;BME280;3872;47.902;8.162;2023-06-10T00:13:01;91621.06;;;16.92;92.56
7660;BME280;3872;47.902;8.162;2023-06-10T00:15:27;91609.03;;;17.10;93.16
7660;BME280;3872;47.902;8.162;2023-06-10T00:17:54;91615.19;;;17.42;89.25
7660;BME280;3872;47.902;8.162;2023-06-10T00:20:21;91621.03;;;17.04;93.81
7660;BME280;3872;47.902;8.162;2023-06-10T00:22:49;91618.47;;;16.80;99.24
7660;BME280;3872;47.902;8.162;2023-06-10T00:25:15;91616.31;;;17.13;95.88
7660;BME280;3872;47.902;8.162;2023-06-10T00:27:43;91607.19;;;16.99;94.46
7660;BME280;3872;47.902;8.162;2023-06-10T00:30:11;91610.34;;;17.16;94.28
7660;BME280;3872;47.902;8.162;2023-06-10T00:32:37;91615.56;;;16.33;100.00
7660;BME280;3872;47.902;8.162;2023-06-10T00:35:05;91614.78;;;17.12;96.28
7660;BME280;3872;47.902;8.162;2023-06-10T00:37:32;91619.78;;;16.34;100.00
7660;BME280;3872;47.902;8.162;2023-06-10T00:40:00;91609.72;;;17.07;97.00
7660;BME280;3872;47.902;8.162;2023-06-10T00:42:26;91609.31;;;16.93;96.48
7660;BME280;3872;47.902;8.162;2023-06-10T00:44:55;91608.88;;;16.91;95.93
7660;BME280;3872;47.902;8.162;2023-06-10T00:47:22;91612.09;;;16.69;100.00
7660;BME280;3872;47.902;8.162;2023-06-10T00:49:49;91608.56;;;16.93;93.15
7660;BME280;3872;47.902;8.162;2023-06-10T00:52:16;91611.44;;;16.48;100.00
7660;BME280;3872;47.902;8.162;2023-06-10T00:54:44;91610.69;;;16.23;100.00
7660;BME280;3872;47.902;8.162;2023-06-10T00:57:12;91604.25;;;16.36;100.00
7660;BME280;3872;47.902;8.162;2023-06-10T00:59:39;91608.13;;;16.38;97.25
7660;BME280;3872;47.902;8.162;2023-06-10T01:02:07;91607.13;;;16.43;95.33
7660;BME280;3872;47.902;8.162;2023-06-10T01:04:34;91599.22;;;16.71;92.58
7660;BME280;3872;47.902;8.162;2023-06-10T01:07:09;91603.91;;;16.50;93.14
7660;BME280;3872;47.902;8.162;2023-06-10T01:09:44;91607.25;;;16.47;95.34
7660;BME280;3872;47.902;8.162;2023-06-10T01:12:16;91607.97;;;15.83;100.00
7660;BME280;3872;47.902;8.162;2023-06-10T01:14:46;91615.56;;;15.72;100.00
7660;BME280;3872;47.902;8.162;2023-06-10T01:17:15;91612.38;;;15.66;100.00
7660;BME280;3872;47.902;8.162;2023-06-10T01:19:43;91606.84;;;15.59;100.00
7660;BME280;3872;47.902;8.162;2023-06-10T01:22:11;91612.03;;;15.80;100.00
7660;BME280;3872;47.902;8.162;2023-06-10T01:24:41;91616.22;;;15.57;100.00
7660;BME280;3872;47.902;8.162;2023-06-10T01:27:12;91618.09;;;15.11;100.00
7660;BME280;3872;47.902;8.162;2023-06-10T01:29:44;91618.34;;;15.76;100.00
7660;BME280;3872;47.902;8.162;2023-06-10T01:32:17;91617.47;;;15.84;100.00
7660;BME280;3872;47.902;8.162;2023-06-10T01:34:45;91616.03;;;15.74;100.00
7660;BME280;3872;47.902;8.162;2023-06-10T01:37:16;91623.59;;;15.51;100.00
7660;BME280;3872;47.902;8.162;2023-06-10T01:39:45;91619.78;;;15.28;100.00
7660;BME280;3872;47.902;8.162;2023-06-10T01:42:13;91626.78;;;15.45;100.00
7660;BME280;3872;47.902;8.162;2023-06-10T01:44:39;91632.56;;;14.39;100.00
7660;BME280;3872;47.902;8.162;2023-06-10T01:47:07;91618.03;;;15.32;100.00
7660;BME280;3872;47.902;8.162;2023-06-10T01:49:34;91633.88;;;15.41;100.00
7660;BME280;3872;47.902;8.162;2023-06-10T01:52:01;91630.09;;;14.97;100.00
7660;BME280;3872;47.902;8.162;2023-06-10T01:54:29;91632.94;;;14.71;100.00
7660;BME280;3872;47.902;8.162;2023-06-10T01:56:56;91624.88;;;14.17;100.00
7660;BME280;3872;47.902;8.162;2023-06-10T01:59:23;91631.06;;;14.71;100.00
7660;BME280;3872;47.902;8.162;2023-06-10T02:01:49;91634.59;;;14.34;100.00
7660;BME280;3872;47.902;8.162;2023-06-10T02:04:16;91628.50;;;14.83;100.00
7660;BME280;3872;47.902;8.162;2023-06-10T02:06:42;91629.91;;;14.81;100.00
7660;BME280;3872;47.902;8.162;2023-06-10T02:09:09;91629.63;;;14.95;100.00
7660;BME280;3872;47.902;8.162;2023-06-10T02:11:37;91629.22;;;15.05;100.00
7660;BME280;3872;47.902;8.162;2023-06-10T02:14:03;91633.63;;;15.01;100.00
7660;BME280;3872;47.902;8.162;2023-06-10T02:16:30;91630.16;;;14.88;100.00
7660;BME280;3872;47.902;8.162;2023-06-10T02:18:57;91632.75;;;14.76;100.00
7660;BME280;3872;47.902;8.162;2023-06-10T02:21:24;91630.28;;;14.92;100.00
7660;BME280;3872;47.902;8.162;2023-06-10T02:23:50;91636.47;;;14.96;100.00
7660;BME280;3872;47.902;8.162;2023-06-10T02:26:17;91634.81;;;14.91;100.00
7660;BME280;3872;47.902;8.162;2023-06-10T02:28:44;91641.28;;;14.40;100.00
7660;BME280;3872;47.902;8.162;2023-06-10T02:31:13;91633.72;;;14.50;100.00
7660;BME280;3872;47.902;8.162;2023-06-10T02:33:39;91631.47;;;14.82;100.00
7660;BME280;3872;47.902;8.162;2023-06-10T02:36:07;91638.75;;;14.43;100.00
7660;BME280;3872;47.902;8.162;2023-06-10T02:38:34;91631.59;;;14.35;100.00
7660;BME280;3872;47.902;8.162;2023-06-10T02:41:00;91631.28;;;14.45;100.00
7660;BME280;3872;47.902;8.162;2023-06-10T02:43:27;91638.44;;;14.16;100.00
7660;BME280;3872;47.902;8.162;2023-06-10T02:45:55;91638.63;;;14.61;100.00
7660;BME280;3872;47.902;8.162;2023-06-10T02:48:23;91632.34;;;14.86;100.00
7660;BME280;3872;47.902;8.162;2023-06-10T02:50:50;91631.25;;;14.66;100.00
7660;BME280;3872;47.902;8.162;2023-06-10T02:53:23;91642.59;;;14.25;100.00
7660;BME280;3872;47.902;8.162;2023-06-10T02:55:55;91647.56;;;14.56;100.00
7660;BME280;3872;47.902;8.162;2023-06-10T02:58:21;91644.84;;;14.35;100.00
7660;BME280;3872;47.902;8.162;2023-06-10T03:00:48;91640.13;;;14.20;100.00
7660;BME280;3872;47.902;8.162;2023-06-10T03:03:16;91642.84;;;14.41;100.00
7660;BME280;3872;47.902;8.162;2023-06-10T03:05:52;91636.56;;;14.45;100.00
7660;BME280;3872;47.902;8.162;2023-06-10T03:08:21;91648.28;;;14.36;100.00
7660;BME280;3872;47.902;8.162;2023-06-10T03:10:47;91642.13;;;14.23;100.00
7660;BME280;3872;47.902;8.162;2023-06-10T03:13:16;91643.50;;;14.29;100.00
7660;BME280;3872;47.902;8.162;2023-06-10T03:15:43;91640.78;;;14.17;100.00
7660;BME280;3872;47.902;8.162;2023-06-10T03:18:14;91644.47;;;14.25;100.00
7660;BME280;3872;47.902;8.162;2023-06-10T03:20:43;91642.41;;;14.30;100.00
7660;BME280;3872;47.902;8.162;2023-06-10T03:23:11;91649.81;;;14.16;100.00
7660;BME280;3872;47.902;8.162;2023-06-10T03:25:38;91652.41;;;14.25;100.00
7660;BME280;3872;47.902;8.162;2023-06-10T03:28:05;91655.34;;;13.94;100.00
7660;BME280;3872;47.902;8.162;2023-06-10T03:30:34;91658.38;;;13.84;100.00
7660;BME280;3872;47.902;8.162;2023-06-10T03:33:01;91654.00;;;13.50;100.00
7660;BME280;3872;47.902;8.162;2023-06-10T03:35:29;91656.50;;;13.46;100.00
7660;BME280;3872;47.902;8.162;2023-06-10T03:37:58;91655.88;;;13.79;100.00
7660;BME280;3872;47.902;8.162;2023-06-10T03:40:24;91663.13;;;13.99;100.00
7660;BME280;3872;47.902;8.162;2023-06-10T03:42:51;91658.38;;;13.84;100.00
7660;BME280;3872;47.902;8.162;2023-06-10T03:45:18;91655.28;;;14.11;100.00
7660;BME280;3872;47.902;8.162;2023-06-10T03:47:46;91662.34;;;13.98;100.00
7660;BME280;3872;47.902;8.162;2023-06-10T03:50:14;91655.63;;;14.01;100.00
7660;BME280;3872;47.902;8.162;2023-06-10T03:52:43;91655.19;;;13.99;100.00
7660;BME280;3872;47.902;8.162;2023-06-10T03:55:12;91658.56;;;14.08;100.00
7660;BME280;3872;47.902;8.162;2023-06-10T03:57:43;91661.47;;;14.15;100.00
7660;BME280;3872;47.902;8.162;2023-06-10T04:00:11;91656.09;;;14.03;100.00
7660;BME280;3872;47.902;8.162;2023-06-10T04:02:41;91664.53;;;13.96;100.00
7660;BME280;3872;47.902;8.162;2023-06-10T04:05:11;91667.53;;;13.86;100.00
7660;BME280;3872;47.902;8.162;2023-06-10T04:07:38;91665.41;;;13.24;100.00
7660;BME280;3872;47.902;8.162;2023-06-10T04:10:07;91654.41;;;13.14;100.00
7660;BME280;3872;47.902;8.162;2023-06-10T04:12:35;91657.16;;;13.35;100.00
7660;BME280;3872;47.902;8.162;2023-06-10T04:15:02;91663.72;;;13.66;100.00
7660;BME280;3872;47.902;8.162;2023-06-10T04:17:29;91661.97;;;13.79;100.00
7660;BME280;3872;47.902;8.162;2023-06-10T04:19:56;91665.50;;;13.45;100.00
7660;BME280;3872;47.902;8.162;2023-06-10T04:22:27;91667.81;;;13.55;100.00
7660;BME280;3872;47.902;8.162;2023-06-10T04:24:54;91667.22;;;13.88;100.00
7660;BME280;3872;47.902;8.162;2023-06-10T04:27:21;91674.22;;;13.92;100.00
7660;BME280;3872;47.902;8.162;2023-06-10T04:29:49;91672.31;;;13.93;100.00
7660;BME280;3872;47.902;8.162;2023-06-10T04:32:16;91676.53;;;13.94;100.00
7660;BME280;3872;47.902;8.162;2023-06-10T04:34:43;91677.63;;;13.93;100.00
7660;BME280;3872;47.902;8.162;2023-06-10T04:37:09;91670.84;;;14.13;100.00
7660;BME280;3872;47.902;8.162;2023-06-10T04:39:36;91673.53;;;14.33;100.00
7660;BME280;3872;47.902;8.162;2023-06-10T04:42:03;91673.56;;;14.25;100.00
7660;BME280;3872;47.902;8.162;2023-06-10T04:44:30;91674.88;;;14.48;100.00
7660;BME280;3872;47.902;8.162;2023-06-10T04:46:58;91670.78;;;14.92;100.00
7660;BME280;3872;47.902;8.162;2023-06-10T04:49:25;91674.72;;;14.86;100.00
7660;BME280;3872;47.902;8.162;2023-06-10T04:51:51;91669.22;;;15.45;100.00
7660;BME280;3872;47.902;8.162;2023-06-10T04:54:18;91672.34;;;14.93;100.00
7660;BME280;3872;47.902;8.162;2023-06-10T04:56:45;91672.53;;;15.09;100.00
7660;BME280;3872;47.902;8.162;2023-06-10T04:59:12;91675.84;;;15.06;100.00
7660;BME280;3872;47.902;8.162;2023-06-10T05:01:39;91672.94;;;15.32;100.00
7660;BME280;3872;47.902;8.162;2023-06-10T05:04:08;91670.19;;;15.73;100.00
7660;BME280;3872;47.902;8.162;2023-06-10T05:06:34;91667.53;;;15.61;100.00
7660;BME280;3872;47.902;8.162;2023-06-10T05:09:02;91669.41;;;15.85;100.00
7660;BME280;3872;47.902;8.162;2023-06-10T05:11:28;91666.47;;;16.11;100.00
7660;BME280;3872;47.902;8.162;2023-06-10T05:13:55;91675.84;;;16.20;100.00
7660;BME280;3872;47.902;8.162;2023-06-10T05:16:21;91670.66;;;16.36;100.00
7660;BME280;3872;47.902;8.162;2023-06-10T05:18:48;91670.22;;;16.22;100.00
7660;BME280;3872;47.902;8.162;2023-06-10T05:21:17;91669.53;;;16.37;100.00
7660;BME280;3872;47.902;8.162;2023-06-10T05:23:44;91672.50;;;16.60;100.00
7660;BME280;3872;47.902;8.162;2023-06-10T05:26:10;91673.50;;;17.35;100.00
7660;BME280;3872;47.902;8.162;2023-06-10T05:28:37;91676.75;;;17.29;96.58
7660;BME280;3872;47.902;8.162;2023-06-10T05:31:04;91666.47;;;17.27;98.72
7660;BME280;3872;47.902;8.162;2023-06-10T05:33:30;91668.13;;;17.32;98.81
7660;BME280;3872;47.902;8.162;2023-06-10T05:35:57;91673.75;;;17.58;100.00
7660;BME280;3872;47.902;8.162;2023-06-10T05:38:25;91671.56;;;17.91;97.26
7660;BME280;3872;47.902;8.162;2023-06-10T05:40:51;91672.13;;;17.97;94.49
7660;BME280;3872;47.902;8.162;2023-06-10T05:43:18;91671.56;;;18.38;92.26
7660;BME280;3872;47.902;8.162;2023-06-10T05:45:44;91667.88;;;18.59;91.40
7660;BME280;3872;47.902;8.162;2023-06-10T05:48:11;91670.88;;;18.57;90.26
7660;BME280;3872;47.902;8.162;2023-06-10T05:50:37;91664.34;;;18.90;87.12
7660;BME280;3872;47.902;8.162;2023-06-10T05:53:05;91664.44;;;18.58;92.94
7660;BME280;3872;47.902;8.162;2023-06-10T05:55:34;91668.06;;;18.85;96.46
7660;BME280;3872;47.902;8.162;2023-06-10T05:58:01;91666.34;;;19.50;89.26
7660;BME280;3872;47.902;8.162;2023-06-10T06:00:27;91662.69;;;19.59;83.94
7660;BME280;3872;47.902;8.162;2023-06-10T06:02:54;91673.69;;;18.99;90.24
7660;BME280;3872;47.902;8.162;2023-06-10T06:05:22;91666.34;;;19.31;84.87
7660;BME280;3872;47.902;8.162;2023-06-10T06:07:49;91662.25;;;19.57;85.84
7660;BME280;3872;47.902;8.162;2023-06-10T06:10:16;91664.19;;;19.79;82.57
7660;BME280;3872;47.902;8.162;2023-06-10T06:12:44;91658.19;;;19.85;83.02
7660;BME280;3872;47.902;8.162;2023-06-10T06:15:11;91659.22;;;20.23;82.03
7660;BME280;3872;47.902;8.162;2023-06-10T06:17:37;91660.59;;;20.62;75.46
7660;BME280;3872;47.902;8.162;2023-06-10T06:20:05;91655.06;;;21.04;74.54
7660;BME280;3872;47.902;8.162;2023-06-10T06:22:32;91649.31;;;21.32;72.46
7660;BME280;3872;47.902;8.162;2023-06-10T06:24:58;91645.94;;;21.39;70.29
7660;BME280;3872;47.902;8.162;2023-06-10T06:27:25;91654.34;;;21.07;73.06
7660;BME280;3872;47.902;8.162;2023-06-10T06:29:53;91646.44;;;21.48;69.84
7660;BME280;3872;47.902;8.162;2023-06-10T06:32:19;91648.75;;;21.16;72.73
7660;BME280;3872;47.902;8.162;2023-06-10T06:34:47;91645.03;;;21.95;68.42
7660;BME280;3872;47.902;8.162;2023-06-10T06:37:14;91644.44;;;21.41;70.00
7660;BME280;3872;47.902;8.162;2023-06-10T06:39:43;91646.22;;;21.64;72.83
7660;BME280;3872;47.902;8.162;2023-06-10T06:42:09;91647.81;;;22.05;70.06
7660;BME280;3872;47.902;8.162;2023-06-10T06:44:48;91652.94;;;22.24;68.32
7660;BME280;3872;47.902;8.162;2023-06-10T06:47:16;91654.03;;;22.64;64.58
7660;BME280;3872;47.902;8.162;2023-06-10T06:49:45;91654.38;;;22.59;62.69
7660;BME280;3872;47.902;8.162;2023-06-10T06:52:11;91656.03;;;22.74;62.67
7660;BME280;3872;47.902;8.162;2023-06-10T06:54:38;91652.22;;;22.27;67.22
7660;BME280;3872;47.902;8.162;2023-06-10T06:57:05;91655.59;;;22.69;67.58
7660;BME280;3872;47.902;8.162;2023-06-10T06:59:32;91657.88;;;23.28;65.51
7660;BME280;3872;47.902;8.162;2023-06-10T07:01:59;91656.19;;;22.48;73.22
7660;BME280;3872;47.902;8.162;2023-06-10T07:04:27;91650.81;;;22.44;63.70
7660;BME280;3872;47.902;8.162;2023-06-10T07:06:54;91650.16;;;23.20;58.95
7660;BME280;3872;47.902;8.162;2023-06-10T07:09:20;91654.72;;;23.09;62.62
7660;BME280;3872;47.902;8.162;2023-06-10T07:11:47;91657.41;;;23.09;62.45
7660;BME280;3872;47.902;8.162;2023-06-10T07:14:14;91649.34;;;23.12;68.45
7660;BME280;3872;47.902;8.162;2023-06-10T07:16:40;91655.50;;;23.13;60.03
7660;BME280;3872;47.902;8.162;2023-06-10T07:19:07;91651.41;;;23.40;59.48
7660;BME280;3872;47.902;8.162;2023-06-10T07:21:35;91650.72;;;23.50;57.00
7660;BME280;3872;47.902;8.162;2023-06-10T07:24:02;91654.00;;;23.19;60.47
7660;BME280;3872;47.902;8.162;2023-06-10T07:26:28;91645.88;;;24.12;57.09
7660;BME280;3872;47.902;8.162;2023-06-10T07:28:55;91648.28;;;23.31;55.21
7660;BME280;3872;47.902;8.162;2023-06-10T07:31:23;91645.44;;;23.89;51.51
7660;BME280;3872;47.902;8.162;2023-06-10T07:33:50;91651.56;;;23.83;53.33
7660;BME280;3872;47.902;8.162;2023-06-10T07:36:17;91641.25;;;24.06;53.92
7660;BME280;3872;47.902;8.162;2023-06-10T07:38:45;91650.06;;;23.92;54.39
7660;BME280;3872;47.902;8.162;2023-06-10T07:41:12;91648.56;;;24.23;55.99
7660;BME280;3872;47.902;8.162;2023-06-10T07:43:39;91643.56;;;24.00;54.11
7660;BME280;3872;47.902;8.162;2023-06-10T07:46:06;91644.34;;;24.08;49.97
7660;BME280;3872;47.902;8.162;2023-06-10T07:48:32;91651.66;;;24.39;50.86
7660;BME280;3872;47.902;8.162;2023-06-10T07:50:59;91649.31;;;24.06;49.47
7660;BME280;3872;47.902;8.162;2023-06-10T07:53:25;91642.81;;;24.74;47.29
7660;BME280;3872;47.902;8.162;2023-06-10T07:55:53;91650.91;;;24.67;45.61
7660;BME280;3872;47.902;8.162;2023-06-10T07:58:20;91653.91;;;24.02;50.57
7660;BME280;3872;47.902;8.162;2023-06-10T08:00:47;91655.41;;;23.85;50.52
7660;BME280;3872;47.902;8.162;2023-06-10T08:03:14;91650.13;;;24.31;46.61
7660;BME280;3872;47.902;8.162;2023-06-10T08:05:40;91648.16;;;25.10;44.48
7660;BME280;3872;47.902;8.162;2023-06-10T08:08:07;91655.50;;;24.99;46.12
7660;BME280;3872;47.902;8.162;2023-06-10T08:10:33;91651.63;;;25.10;43.65
7660;BME280;3872;47.902;8.162;2023-06-10T08:13:01;91648.22;;;24.92;47.07
7660;BME280;3872;47.902;8.162;2023-06-10T08:15:28;91657.81;;;24.72;45.75
7660;BME280;3872;47.902;8.162;2023-06-10T08:17:54;91649.94;;;25.62;44.81
7660;BME280;3872;47.902;8.162;2023-06-10T08:20:21;91646.97;;;25.25;45.79
7660;BME280;3872;47.902;8.162;2023-06-10T08:22:48;91650.72;;;25.63;43.39
7660;BME280;3872;47.902;8.162;2023-06-10T08:25:14;91652.66;;;25.45;43.39
7660;BME280;3872;47.902;8.162;2023-06-10T08:27:41;91643.06;;;25.40;44.76
7660;BME280;3872;47.902;8.162;2023-06-10T08:30:10;91646.69;;;25.96;41.33
7660;BME280;3872;47.902;8.162;2023-06-10T08:32:38;91647.03;;;26.64;40.37
7660;BME280;3872;47.902;8.162;2023-06-10T08:35:05;91660.47;;;25.18;44.55
7660;BME280;3872;47.902;8.162;2023-06-10T08:37:31;91648.81;;;25.46;45.16
7660;BME280;3872;47.902;8.162;2023-06-10T08:39:58;91646.72;;;25.92;41.77
7660;BME280;3872;47.902;8.162;2023-06-10T08:42:28;91649.91;;;25.69;42.99
7660;BME280;3872;47.902;8.162;2023-06-10T08:44:55;91649.19;;;25.62;44.33
7660;BME280;3872;47.902;8.162;2023-06-10T08:47:24;91651.09;;;25.58;43.78
7660;BME280;3872;47.902;8.162;2023-06-10T08:49:53;91654.94;;;25.71;43.28
7660;BME280;3872;47.902;8.162;2023-06-10T08:52:23;91648.03;;;25.56;41.29
7660;BME280;3872;47.902;8.162;2023-06-10T08:54:57;91646.34;;;26.52;39.94
7660;BME280;3872;47.902;8.162;2023-06-10T08:57:25;91654.31;;;25.10;43.18
7660;BME280;3872;47.902;8.162;2023-06-10T08:59:53;91649.56;;;25.60;42.38
7660;BME280;3872;47.902;8.162;2023-06-10T09:02:20;91656.41;;;25.83;41.43
7660;BME280;3872;47.902;8.162;2023-06-10T09:04:49;91649.91;;;26.91;37.61
7660;BME280;3872;47.902;8.162;2023-06-10T09:07:16;91650.56;;;26.57;42.01
7660;BME280;3872;47.902;8.162;2023-06-10T09:09:43;91655.13;;;27.08;39.13
7660;BME280;3872;47.902;8.162;2023-06-10T09:12:10;91645.25;;;25.77;39.66
7660;BME280;3872;47.902;8.162;2023-06-10T09:14:38;91644.03;;;26.55;40.11
7660;BME280;3872;47.902;8.162;2023-06-10T09:17:05;91647.94;;;27.32;39.76
7660;BME280;3872;47.902;8.162;2023-06-10T09:19:32;91648.56;;;27.47;38.38
7660;BME280;3872;47.902;8.162;2023-06-10T09:22:01;91651.28;;;26.61;41.75
7660;BME280;3872;47.902;8.162;2023-06-10T09:24:28;91651.88;;;26.35;40.00
7660;BME280;3872;47.902;8.162;2023-06-10T09:27:02;91657.50;;;27.40;37.98
7660;BME280;3872;47.902;8.162;2023-06-10T09:29:30;91653.81;;;27.23;40.57
7660;BME280;3872;47.902;8.162;2023-06-10T09:31:57;91654.69;;;26.10;39.89
7660;BME280;3872;47.902;8.162;2023-06-10T09:34:25;91657.25;;;26.38;41.31
7660;BME280;3872;47.902;8.162;2023-06-10T09:36:53;91660.47;;;26.71;41.96
7660;BME280;3872;47.902;8.162;2023-06-10T09:39:20;91646.50;;;27.61;38.88
7660;BME280;3872;47.902;8.162;2023-06-10T09:41:47;91646.34;;;27.72;36.99
7660;BME280;3872;47.902;8.162;2023-06-10T09:44:15;91654.81;;;25.89;42.53
7660;BME280;3872;47.902;8.162;2023-06-10T09:46:42;91657.94;;;25.84;42.74
7660;BME280;3872;47.902;8.162;2023-06-10T09:49:11;91654.88;;;26.44;42.17
7660;BME280;3872;47.902;8.162;2023-06-10T09:51:37;91646.91;;;27.90;39.65
7660;BME280;3872;47.902;8.162;2023-06-10T09:54:04;91646.22;;;27.11;40.51
7660;BME280;3872;47.902;8.162;2023-06-10T09:56:35;91653.16;;;27.53;40.43
7660;BME280;3872;47.902;8.162;2023-06-10T09:59:03;91645.63;;;28.56;38.13
7660;BME280;3872;47.902;8.162;2023-06-10T10:01:31;91644.13;;;27.94;39.97
7660;BME280;3872;47.902;8.162;2023-06-10T10:03:59;91652.78;;;28.12;38.75
7660;BME280;3872;47.902;8.162;2023-06-10T10:06:26;91656.31;;;28.09;38.09
7660;BME280;3872;47.902;8.162;2023-06-10T10:08:53;91652.25;;;28.51;38.12
7660;BME280;3872;47.902;8.162;2023-06-10T10:11:21;91654.19;;;28.77;36.01
7660;BME280;3872;47.902;8.162;2023-06-10T10:13:50;91660.41;;;29.64;34.07
7660;BME280;3872;47.902;8.162;2023-06-10T10:16:20;91650.69;;;29.24;35.60
7660;BME280;3872;47.902;8.162;2023-06-10T10:18:53;91661.19;;;28.75;35.33
7660;BME280;3872;47.902;8.162;2023-06-10T10:21:23;91659.41;;;28.08;34.40
7660;BME280;3872;47.902;8.162;2023-06-10T10:23:55;91660.63;;;28.03;36.02
7660;BME280;3872;47.902;8.162;2023-06-10T10:26:25;91659.44;;;27.77;36.31
7660;BME280;3872;47.902;8.162;2023-06-10T10:29:01;91649.72;;;26.64;40.64
7660;BME280;3872;47.902;8.162;2023-06-10T10:31:32;91663.34;;;27.73;37.95
7660;BME280;3872;47.902;8.162;2023-06-10T10:34:02;91674.31;;;27.21;39.48
7660;BME280;3872;47.902;8.162;2023-06-10T10:36:31;91664.00;;;26.61;40.88
7660;BME280;3872;47.902;8.162;2023-06-10T10:38:58;91670.03;;;26.24;42.05
7660;BME280;3872;47.902;8.162;2023-06-10T10:41:27;91669.34;;;26.09;39.85
7660;BME280;3872;47.902;8.162;2023-06-10T10:43:56;91662.59;;;27.35;38.68
7660;BME280;3872;47.902;8.162;2023-06-10T10:46:23;91659.13;;;28.83;34.99
7660;BME280;3872;47.902;8.162;2023-06-10T10:48:52;91665.00;;;28.51;37.29
7660;BME280;3872;47.902;8.162;2023-06-10T10:51:20;91669.50;;;27.39;38.34
7660;BME280;3872;47.902;8.162;2023-06-10T10:54:10;91661.13;;;27.26;38.00
7660;BME280;3872;47.902;8.162;2023-06-10T10:56:37;91651.84;;;28.26;35.76
7660;BME280;3872;47.902;8.162;2023-06-10T10:59:06;91657.81;;;27.12;38.75
7660;BME280;3872;47.902;8.162;2023-06-10T11:01:40;91660.31;;;26.92;38.63
7660;BME280;3872;47.902;8.162;2023-06-10T11:04:07;91655.72;;;26.85;38.83
7660;BME280;3872;47.902;8.162;2023-06-10T11:06:36;91655.75;;;28.21;37.21
7660;BME280;3872;47.902;8.162;2023-06-10T11:09:26;91646.69;;;29.51;34.73
7660;BME280;3872;47.902;8.162;2023-06-10T11:11:56;91651.88;;;28.22;35.68
7660;BME280;3872;47.902;8.162;2023-06-10T11:14:28;91653.06;;;27.23;40.83
7660;BME280;3872;47.902;8.162;2023-06-10T11:16:57;91641.00;;;28.53;36.50
7660;BME280;3872;47.902;8.162;2023-06-10T11:19:34;91644.59;;;29.79;31.50
7660;BME280;3872;47.902;8.162;2023-06-10T11:22:02;91655.31;;;27.96;36.37
7660;BME280;3872;47.902;8.162;2023-06-10T11:24:29;91642.47;;;29.90;29.29
7660;BME280;3872;47.902;8.162;2023-06-10T11:27:14;91649.19;;;28.72;36.41
7660;BME280;3872;47.902;8.162;2023-06-10T11:29:57;91640.19;;;29.69;33.17
7660;BME280;3872;47.902;8.162;2023-06-10T11:32:23;91645.91;;;29.08;35.23
7660;BME280;3872;47.902;8.162;2023-06-10T11:34:53;91651.03;;;28.56;35.07
7660;BME280;3872;47.902;8.162;2023-06-10T11:37:20;91651.91;;;27.92;36.89
7660;BME280;3872;47.902;8.162;2023-06-10T11:39:47;91656.22;;;27.14;38.59
7660;BME280;3872;47.902;8.162;2023-06-10T11:42:17;91654.50;;;26.45;40.83
7660;BME280;3872;47.902;8.162;2023-06-10T11:44:48;91654.38;;;26.60;40.43
7660;BME280;3872;47.902;8.162;2023-06-10T11:47:16;91657.97;;;26.46;40.97
7660;BME280;3872;47.902;8.162;2023-06-10T11:49:42;91664.31;;;26.11;40.79
7660;BME280;3872;47.902;8.162;2023-06-10T11:52:09;91663.72;;;27.00;39.88
7660;BME280;3872;47.902;8.162;2023-06-10T11:54:36;91652.75;;;28.93;38.49
7660;BME280;3872;47.902;8.162;2023-06-10T11:57:02;91646.97;;;30.16;34.74
7660;BME280;3872;47.902;8.162;2023-06-10T11:59:30;91644.09;;;30.23;32.35
7660;BME280;3872;47.902;8.162;2023-06-10T12:01:56;91636.91;;;31.30;31.02
7660;BME280;3872;47.902;8.162;2023-06-10T12:04:24;91643.94;;;29.75;33.72
7660;BME280;3872;47.902;8.162;2023-06-10T12:06:53;91635.66;;;30.02;32.74
7660;BME280;3872;47.902;8.162;2023-06-10T12:09:21;91644.13;;;28.24;36.10
7660;BME280;3872;47.902;8.162;2023-06-10T12:11:49;91636.28;;;29.70;33.90
7660;BME280;3872;47.902;8.162;2023-06-10T12:14:52;91633.34;;;31.33;30.61
7660;BME280;3872;47.902;8.162;2023-06-10T12:17:23;91641.22;;;29.55;31.88
7660;BME280;3872;47.902;8.162;2023-06-10T12:19:51;91639.38;;;28.59;35.60
7660;BME280;3872;47.902;8.162;2023-06-10T12:22:18;91645.78;;;28.68;34.83
7660;BME280;3872;47.902;8.162;2023-06-10T12:24:56;91640.16;;;28.32;36.62
7660;BME280;3872;47.902;8.162;2023-06-10T12:27:24;91639.41;;;28.82;36.94
7660;BME280;3872;47.902;8.162;2023-06-10T12:29:52;91637.91;;;28.54;36.52
7660;BME280;3872;47.902;8.162;2023-06-10T12:32:19;91643.72;;;27.31;39.02
7660;BME280;3872;47.902;8.162;2023-06-10T12:34:48;91634.03;;;28.55;36.12
7660;BME280;3872;47.902;8.162;2023-06-10T12:37:16;91632.00;;;28.59;36.77
7660;BME280;3872;47.902;8.162;2023-06-10T12:39:50;91633.78;;;28.93;36.55
7660;BME280;3872;47.902;8.162;2023-06-10T12:42:21;91627.38;;;29.06;36.08
7660;BME280;3872;47.902;8.162;2023-06-10T12:44:53;91627.56;;;27.92;36.10
7660;BME280;3872;47.902;8.162;2023-06-10T12:47:20;91631.56;;;27.46;36.90
7660;BME280;3872;47.902;8.162;2023-06-10T12:49:56;91638.66;;;28.28;36.16
7660;BME280;3872;47.902;8.162;2023-06-10T12:52:25;91636.28;;;27.39;38.79
7660;BME280;3872;47.902;8.162;2023-06-10T12:54:52;91642.75;;;26.66;39.45
7660;BME280;3872;47.902;8.162;2023-06-10T12:57:19;91632.94;;;28.22;38.66
7660;BME280;3872;47.902;8.162;2023-06-10T12:59:46;91627.84;;;28.28;37.54
7660;BME280;3872;47.902;8.162;2023-06-10T13:02:17;91632.72;;;27.49;39.86
7660;BME280;3872;47.902;8.162;2023-06-10T13:04:44;91632.94;;;28.22;38.20
7660;BME280;3872;47.902;8.162;2023-06-10T13:07:11;91624.81;;;28.72;37.39
7660;BME280;3872;47.902;8.162;2023-06-10T13:09:39;91625.09;;;27.74;38.33
7660;BME280;3872;47.902;8.162;2023-06-10T13:12:07;91625.47;;;28.03;38.30
7660;BME280;3872;47.902;8.162;2023-06-10T13:14:35;91620.13;;;27.35;40.86
7660;BME280;3872;47.902;8.162;2023-06-10T13:17:03;91619.25;;;27.08;39.41
7660;BME280;3872;47.902;8.162;2023-06-10T13:19:31;91618.13;;;26.64;40.34
7660;BME280;3872;47.902;8.162;2023-06-10T13:21:57;91625.66;;;26.83;39.77